Time;durP1;ratioP1;P1;durP2;ratioP2;P2;SDS_P1;SDS_P2;PMS_P1;PMS_P2;Temp;Humidity;BMP_temperature;BMP_pressure;BME280_temperature;BME280_humidity;BME280_pressure;Samples;Min_cycle;Max_cycle;Signal;HPM_P1;HPM_P2
2023/12/14 00:01:14;;;;;;;21.03;11.83;;;7.70;99.90;;;;;;5055858;28;20158;-89
2023/12/14 00:03:46;;;;;;;22.23;13.10;;;7.60;99.90;;;;;;5038409;28;20083;-88
2023/12/14 00:06:13;;;;;;;21.63;12.77;;;7.70;99.90;;;;;;5055732;28;20122;-88
2023/12/14 00:08:40;;;;;;;21.50;12.70;;;7.60;99.90;;;;;;5038323;28;20507;-89
2023/12/14 00:11:07;;;;;;;20.37;11.90;;;7.60;99.90;;;;;;5055735;28;20029;-87
2023/12/14 00:13:33;;;;;;;21.57;13.30;;;7.60;99.90;;;;;;5037945;28;20029;-85
2023/12/14 00:15:59;;;;;;;21.27;12.03;;;7.60;99.90;;;;;;5055376;28;20436;-89
2023/12/14 00:18:25;;;;;;;23.97;12.67;;;7.50;99.90;;;;;;5055626;28;20109;-88
2023/12/14 00:20:50;;;;;;;21.63;13.73;;;7.60;99.90;;;;;;5055913;28;20033;-88
2023/12/14 00:23:16;;;;;;;24.10;12.97;;;7.60;99.90;;;;;;5055276;28;20033;-89
2023/12/14 00:25:42;;;;;;;21.50;12.43;;;7.50;99.90;;;;;;5055544;28;20086;-87
2023/12/14 00:28:07;;;;;;;20.53;11.77;;;7.50;99.90;;;;;;5037580;28;20033;-89
2023/12/14 00:30:33;;;;;;;22.83;12.30;;;7.50;99.90;;;;;;5037910;28;20033;-87
2023/12/14 00:32:59;;;;;;;22.03;12.30;;;7.50;99.90;;;;;;5055649;28;20048;-87
2023/12/14 00:35:24;;;;;;;22.70;11.03;;;7.50;99.90;;;;;;5055852;28;20119;-88
2023/12/14 00:37:50;;;;;;;21.27;11.77;;;7.50;99.90;;;;;;5055019;28;20039;-85
2023/12/14 00:40:15;;;;;;;22.63;12.20;;;7.50;99.90;;;;;;5036502;28;20481;-85
2023/12/14 00:42:41;;;;;;;20.97;11.40;;;7.50;99.90;;;;;;5054555;28;20409;-88
2023/12/14 00:45:07;;;;;;;23.83;12.33;;;7.40;99.90;;;;;;5055283;28;20033;-89
2023/12/14 00:47:33;;;;;;;22.37;12.07;;;7.40;99.90;;;;;;5036944;28;20053;-89
2023/12/14 00:49:58;;;;;;;20.33;10.53;;;7.40;99.90;;;;;;5037140;28;20060;-88
2023/12/14 00:52:24;;;;;;;20.47;11.47;;;7.40;99.90;;;;;;5037263;28;20060;-88
2023/12/14 00:54:50;;;;;;;18.70;10.27;;;7.40;99.90;;;;;;5037252;28;20033;-89
2023/12/14 00:57:15;;;;;;;22.13;10.80;;;7.40;99.90;;;;;;5037388;28;20029;-89
2023/12/14 00:59:41;;;;;;;19.30;11.37;;;7.40;99.90;;;;;;5037171;28;20117;-88
2023/12/14 01:02:07;;;;;;;19.63;11.43;;;7.40;99.90;;;;;;5037016;28;20033;-90
2023/12/14 01:04:32;;;;;;;22.20;11.97;;;7.30;99.90;;;;;;5055044;28;20480;-87
2023/12/14 01:06:58;;;;;;;23.73;12.20;;;7.30;99.90;;;;;;5054993;28;20047;-89
2023/12/14 01:09:24;;;;;;;22.93;12.90;;;7.30;99.90;;;;;;5037624;28;20053;-87
2023/12/14 01:11:49;;;;;;;21.53;12.33;;;7.30;99.90;;;;;;5037089;28;20489;-89
2023/12/14 01:14:15;;;;;;;21.80;12.53;;;7.20;99.90;;;;;;5036981;28;20122;-88
2023/12/14 01:16:41;;;;;;;20.37;11.53;;;7.20;99.90;;;;;;5054303;28;20036;-86
2023/12/14 01:19:07;;;;;;;21.30;12.20;;;7.20;99.90;;;;;;5036204;28;20123;-87
2023/12/14 01:21:33;;;;;;;18.77;10.70;;;7.20;99.90;;;;;;5055345;28;20107;-88
2023/12/14 01:24:00;;;;;;;19.10;10.60;;;7.20;99.90;;;;;;5054840;28;20060;-88
2023/12/14 01:26:26;;;;;;;19.20;11.50;;;7.20;99.90;;;;;;5054678;28;20053;-89
2023/12/14 01:28:52;;;;;;;20.73;11.47;;;7.20;99.90;;;;;;5054842;28;20033;-89
2023/12/14 01:31:18;;;;;;;19.97;11.60;;;7.20;99.90;;;;;;5037092;28;20481;-88
2023/12/14 01:33:45;;;;;;;17.30;10.60;;;7.20;99.90;;;;;;5036641;28;20037;-89
2023/12/14 01:36:11;;;;;;;21.87;11.60;;;7.20;99.90;;;;;;5036989;28;20025;-88
2023/12/14 01:38:37;;;;;;;22.30;12.83;;;7.20;99.90;;;;;;5036959;28;20091;-89
2023/12/14 01:41:03;;;;;;;18.87;11.37;;;7.10;99.90;;;;;;5054257;28;20048;-88
2023/12/14 01:43:29;;;;;;;21.30;12.20;;;7.10;99.90;;;;;;5054289;28;20033;-88
2023/12/14 01:45:55;;;;;;;20.00;11.53;;;7.10;99.90;;;;;;5036124;28;20055;-89
2023/12/14 01:48:20;;;;;;;17.97;10.97;;;7.10;99.90;;;;;;5054328;28;20037;-88
2023/12/14 01:50:46;;;;;;;19.53;11.03;;;7.10;99.90;;;;;;5054839;28;20029;-88
2023/12/14 01:53:12;;;;;;;19.67;11.07;;;7.10;99.90;;;;;;5058532;28;20086;-89
2023/12/14 01:55:38;;;;;;;19.70;11.27;;;7.10;99.90;;;;;;5040733;28;20033;-86
2023/12/14 01:58:03;;;;;;;20.90;12.30;;;7.10;99.90;;;;;;5040745;28;20119;-89
2023/12/14 02:01:00;;;;;;;19.77;11.67;;;7.10;99.90;;;;;;5040681;28;20108;-88
2023/12/14 02:03:25;;;;;;;21.77;13.17;;;7.10;99.90;;;;;;5058670;28;20036;-88
2023/12/14 02:05:51;;;;;;;22.90;13.60;;;7.10;99.90;;;;;;5058512;28;20537;-89
2023/12/14 02:08:16;;;;;;;20.23;12.87;;;7.10;99.90;;;;;;5041672;28;20041;-88
2023/12/14 02:10:42;;;;;;;21.57;13.20;;;7.10;99.90;;;;;;5058808;28;20109;-88
2023/12/14 02:13:08;;;;;;;20.10;12.37;;;7.00;99.90;;;;;;5058558;28;20465;-90
2023/12/14 02:15:33;;;;;;;22.07;13.07;;;7.00;99.90;;;;;;5058641;28;20481;-89
2023/12/14 02:17:59;;;;;;;21.37;12.57;;;7.00;99.90;;;;;;5058630;28;20052;-88
2023/12/14 02:20:25;;;;;;;20.17;12.37;;;7.00;99.90;;;;;;5058424;28;20158;-88
2023/12/14 02:22:55;;;;;;;20.50;12.87;;;7.10;99.90;;;;;;5058157;28;20060;-87
2023/12/14 02:25:21;;;;;;;22.27;13.03;;;7.00;99.90;;;;;;5039869;28;20033;-86
2023/12/14 02:27:48;;;;;;;20.47;12.67;;;7.00;99.90;;;;;;5040101;28;20039;-87
2023/12/14 02:30:14;;;;;;;20.87;12.67;;;7.00;99.90;;;;;;5039896;28;20036;-87
2023/12/14 02:32:39;;;;;;;17.83;11.97;;;7.00;99.90;;;;;;5039913;28;20114;-89
2023/12/14 02:35:06;;;;;;;20.10;13.40;;;7.00;99.90;;;;;;5040109;28;20404;-88
2023/12/14 02:37:33;;;;;;;18.23;11.00;;;7.00;99.90;;;;;;5039561;28;20117;-89
2023/12/14 02:39:59;;;;;;;20.20;11.83;;;7.00;99.90;;;;;;5057307;28;20083;-89
2023/12/14 02:42:25;;;;;;;20.87;12.17;;;7.00;99.90;;;;;;5039885;28;20060;-89
2023/12/14 02:44:51;;;;;;;20.67;12.60;;;6.90;99.90;;;;;;5041165;28;20029;-87
2023/12/14 02:47:16;;;;;;;22.40;13.17;;;7.00;99.90;;;;;;5039636;28;20056;-87
2023/12/14 02:49:43;;;;;;;20.83;12.07;;;6.90;99.90;;;;;;5040678;28;20039;-89
2023/12/14 02:52:09;;;;;;;19.87;11.57;;;6.90;99.90;;;;;;5057908;28;20033;-89
2023/12/14 02:54:36;;;;;;;22.87;12.83;;;6.90;99.90;;;;;;5040326;28;20040;-88
2023/12/14 02:57:01;;;;;;;22.37;11.67;;;6.90;99.90;;;;;;5057595;28;20077;-89
2023/12/14 02:59:27;;;;;;;23.73;12.80;;;6.90;99.90;;;;;;5057621;28;20021;-89
2023/12/14 03:01:53;;;;;;;19.43;12.13;;;6.90;99.90;;;;;;5057509;28;20032;-86
2023/12/14 03:04:18;;;;;;;17.90;11.17;;;6.90;99.90;;;;;;5057355;28;20033;-89
2023/12/14 03:06:44;;;;;;;18.80;12.00;;;6.90;99.90;;;;;;5057569;28;20040;-87
2023/12/14 03:09:09;;;;;;;19.80;10.87;;;6.90;99.90;;;;;;5056724;28;20036;-85
2023/12/14 03:11:35;;;;;;;15.87;9.53;;;6.90;99.90;;;;;;5039100;28;20503;-87
2023/12/14 03:14:01;;;;;;;21.30;10.37;;;6.90;99.90;;;;;;5038918;28;20029;-88
2023/12/14 03:16:26;;;;;;;15.70;10.23;;;6.90;99.90;;;;;;5039492;28;20036;-88
2023/12/14 03:18:53;;;;;;;15.53;9.70;;;6.90;99.90;;;;;;5056811;28;20083;-87
2023/12/14 03:21:19;;;;;;;19.13;12.00;;;6.90;99.90;;;;;;5056683;28;20059;-88
2023/12/14 03:23:45;;;;;;;18.80;10.80;;;6.90;99.90;;;;;;5038987;28;20025;-87
2023/12/14 03:26:11;;;;;;;17.77;11.30;;;7.00;99.90;;;;;;5056307;28;20083;-87
2023/12/14 03:28:37;;;;;;;16.73;11.10;;;7.00;99.90;;;;;;5056657;28;20029;-88
2023/12/14 03:31:03;;;;;;;16.57;10.00;;;7.00;99.90;;;;;;5038355;28;20032;-87
2023/12/14 03:33:29;;;;;;;17.93;11.23;;;7.00;99.90;;;;;;5038846;28;20021;-88
2023/12/14 03:35:55;;;;;;;18.27;11.43;;;7.00;99.90;;;;;;5056732;28;20052;-89
2023/12/14 03:38:20;;;;;;;17.83;10.17;;;7.00;99.90;;;;;;5056962;28;20111;-87
2023/12/14 03:40:46;;;;;;;17.07;10.20;;;7.00;99.90;;;;;;5056624;28;20068;-89
2023/12/14 03:43:11;;;;;;;16.03;10.10;;;7.00;99.90;;;;;;5038720;28;20485;-88
2023/12/14 03:45:37;;;;;;;15.53;10.30;;;6.90;99.90;;;;;;5056837;28;20026;-89
2023/12/14 03:48:03;;;;;;;17.27;11.23;;;6.90;99.90;;;;;;5056323;28;20037;-87
2023/12/14 03:50:29;;;;;;;15.73;10.20;;;6.90;99.90;;;;;;5038834;28;20029;-88
2023/12/14 03:52:54;;;;;;;17.77;12.13;;;6.90;99.90;;;;;;5038463;28;20463;-87
2023/12/14 03:55:20;;;;;;;16.27;9.70;;;6.90;99.90;;;;;;5039065;28;20476;-88
2023/12/14 03:57:46;;;;;;;14.47;9.30;;;6.90;99.90;;;;;;5055918;28;20025;-88
2023/12/14 04:00:13;;;;;;;14.23;9.07;;;6.90;99.90;;;;;;5056372;28;20251;-88
2023/12/14 04:02:39;;;;;;;16.17;9.87;;;6.90;99.90;;;;;;5038464;28;20519;-88
2023/12/14 04:05:08;;;;;;;14.87;9.63;;;6.90;99.90;;;;;;5038140;28;20086;-87
2023/12/14 04:07:40;;;;;;;16.83;10.13;;;6.90;99.90;;;;;;5037832;28;20076;-87
2023/12/14 04:10:09;;;;;;;15.30;9.27;;;7.00;99.90;;;;;;5037757;28;20021;-87
2023/12/14 04:12:36;;;;;;;15.47;10.17;;;6.90;99.90;;;;;;5038252;28;20028;-88
2023/12/14 04:15:02;;;;;;;15.00;9.83;;;6.90;99.90;;;;;;5037344;28;20048;-88
2023/12/14 04:17:28;;;;;;;15.70;9.97;;;7.00;99.90;;;;;;5037864;28;20029;-88
2023/12/14 04:19:54;;;;;;;14.90;9.10;;;7.00;99.90;;;;;;5055551;28;20040;-89
2023/12/14 04:22:19;;;;;;;16.33;9.20;;;7.00;99.90;;;;;;5055644;28;20113;-89
2023/12/14 04:24:45;;;;;;;13.10;8.50;;;7.00;99.90;;;;;;5037040;28;20033;-88
2023/12/14 04:27:11;;;;;;;15.70;9.70;;;7.00;99.90;;;;;;5034619;28;20048;-89
2023/12/14 04:29:36;;;;;;;13.97;9.27;;;7.00;99.90;;;;;;5035218;28;20112;-88
2023/12/14 04:32:02;;;;;;;14.00;9.47;;;7.00;99.90;;;;;;5034655;28;20025;-88
2023/12/14 04:34:28;;;;;;;15.40;8.93;;;7.00;99.90;;;;;;5035071;28;20504;-88
2023/12/14 04:36:57;;;;;;;15.23;10.17;;;7.00;99.90;;;;;;5036368;28;20045;-88
2023/12/14 04:39:24;;;;;;;13.33;8.93;;;7.00;99.90;;;;;;5034934;28;20032;-88
2023/12/14 04:41:50;;;;;;;16.70;10.43;;;7.00;99.90;;;;;;5034014;28;20091;-87
2023/12/14 04:44:16;;;;;;;16.23;10.60;;;7.00;99.90;;;;;;5033898;28;20037;-88
2023/12/14 04:46:42;;;;;;;15.23;10.13;;;7.00;99.90;;;;;;5035164;28;20033;-86
2023/12/14 04:49:08;;;;;;;16.20;10.37;;;7.00;99.90;;;;;;5034932;28;20030;-87
2023/12/14 04:51:33;;;;;;;16.23;10.60;;;7.00;99.90;;;;;;5034749;28;20034;-88
2023/12/14 04:53:59;;;;;;;16.17;10.30;;;7.00;99.90;;;;;;5034797;28;20379;-88
2023/12/14 04:56:25;;;;;;;18.03;10.07;;;6.90;99.90;;;;;;5033760;28;20048;-87
2023/12/14 04:58:50;;;;;;;14.17;8.90;;;7.00;99.90;;;;;;5033921;28;20025;-87
2023/12/14 05:01:16;;;;;;;17.37;10.87;;;7.00;99.90;;;;;;5033752;28;20029;-88
2023/12/14 05:03:42;;;;;;;18.00;10.97;;;7.00;99.90;;;;;;5034769;28;20025;-87
2023/12/14 05:06:08;;;;;;;18.00;10.67;;;7.00;99.90;;;;;;5017204;28;20082;-88
2023/12/14 05:08:34;;;;;;;15.33;10.10;;;7.00;99.90;;;;;;5034801;28;20505;-88
2023/12/14 05:10:59;;;;;;;18.87;10.93;;;7.00;99.90;;;;;;5033767;28;20048;-88
2023/12/14 05:13:25;;;;;;;17.73;11.10;;;7.00;99.90;;;;;;5033569;28;20047;-88
2023/12/14 05:15:51;;;;;;;17.17;10.33;;;7.00;99.90;;;;;;5034712;28;20405;-87
2023/12/14 05:18:18;;;;;;;17.10;10.83;;;6.90;99.90;;;;;;5033446;28;20051;-85
2023/12/14 05:20:45;;;;;;;17.53;9.80;;;6.90;99.90;;;;;;5034032;28;20044;-87
2023/12/14 05:23:11;;;;;;;15.53;8.30;;;6.90;99.90;;;;;;5033251;28;20061;-87
2023/12/14 05:25:37;;;;;;;16.33;9.47;;;6.90;99.90;;;;;;5032252;28;20033;-87
2023/12/14 05:28:03;;;;;;;16.63;9.33;;;7.00;99.90;;;;;;5033167;28;20060;-86
2023/12/14 05:30:29;;;;;;;15.93;9.53;;;6.90;99.90;;;;;;5033159;28;20025;-88
2023/12/14 05:32:55;;;;;;;14.50;8.73;;;6.90;99.90;;;;;;5034111;28;20026;-87
2023/12/14 05:35:21;;;;;;;15.80;9.47;;;6.90;99.90;;;;;;5034081;28;20052;-87
2023/12/14 05:37:47;;;;;;;17.00;9.80;;;7.00;99.90;;;;;;5034379;28;20112;-87
2023/12/14 05:40:12;;;;;;;14.47;9.13;;;6.90;99.90;;;;;;5034261;28;20077;-88
2023/12/14 05:42:38;;;;;;;15.07;9.27;;;6.90;99.90;;;;;;5033607;28;20034;-88
2023/12/14 05:45:05;;;;;;;17.33;9.40;;;6.90;99.90;;;;;;5034449;28;20091;-86
2023/12/14 05:47:33;;;;;;;13.43;8.57;;;6.90;99.90;;;;;;5033536;28;20033;-86
2023/12/14 05:49:59;;;;;;;13.27;8.83;;;6.90;99.90;;;;;;5034043;28;20025;-88
2023/12/14 05:52:24;;;;;;;16.30;8.97;;;6.90;99.90;;;;;;5032796;28;20032;-88
2023/12/14 05:54:50;;;;;;;15.43;9.10;;;6.80;99.90;;;;;;5033855;28;20037;-88
2023/12/14 05:57:16;;;;;;;14.27;8.60;;;6.80;99.90;;;;;;5033751;28;20037;-88
2023/12/14 05:59:41;;;;;;;14.33;8.87;;;6.80;99.90;;;;;;5034010;28;20088;-87
2023/12/14 06:02:07;;;;;;;13.83;8.60;;;6.80;99.90;;;;;;5034101;28;20044;-86
2023/12/14 06:04:33;;;;;;;14.47;8.83;;;6.80;99.90;;;;;;5033636;28;20041;-87
2023/12/14 06:06:58;;;;;;;14.77;8.80;;;6.70;99.90;;;;;;5033582;28;20095;-87
2023/12/14 06:09:33;;;;;;;14.50;9.00;;;6.80;99.90;;;;;;5033066;28;20041;-88
2023/12/14 06:12:03;;;;;;;15.40;8.87;;;6.80;99.90;;;;;;5033869;28;20121;-88
2023/12/14 06:14:29;;;;;;;12.37;7.57;;;6.80;99.90;;;;;;5032883;28;20064;-88
2023/12/14 06:16:55;;;;;;;15.13;8.93;;;6.80;99.90;;;;;;5016266;28;20409;-88
2023/12/14 06:19:21;;;;;;;12.37;7.50;;;6.70;99.90;;;;;;5033784;28;20033;-86
2023/12/14 06:21:47;;;;;;;13.13;8.07;;;6.70;99.90;;;;;;5033590;28;20044;-88
2023/12/14 06:24:13;;;;;;;13.73;8.00;;;6.80;99.90;;;;;;5032399;28;20079;-87
2023/12/14 06:26:43;;;;;;;15.47;8.50;;;6.70;99.90;;;;;;5032908;28;20116;-90
2023/12/14 06:29:09;;;;;;;15.37;8.90;;;6.70;99.90;;;;;;5032961;28;20040;-89
2023/12/14 06:31:35;;;;;;;14.30;8.43;;;6.70;99.90;;;;;;5034362;28;20488;-89
2023/12/14 06:34:03;;;;;;;12.70;8.10;;;6.70;99.90;;;;;;5033072;28;20034;-87
2023/12/14 06:36:30;;;;;;;13.37;8.17;;;6.70;99.90;;;;;;5042065;28;20032;-88
2023/12/14 06:38:56;;;;;;;14.97;8.87;;;6.70;99.90;;;;;;5041578;28;20040;-87
2023/12/14 06:41:22;;;;;;;15.90;9.20;;;6.60;99.90;;;;;;5036882;28;20053;-88
2023/12/14 06:43:48;;;;;;;17.10;8.90;;;6.70;99.90;;;;;;5037957;28;20034;-88
2023/12/14 06:46:14;;;;;;;14.83;8.03;;;6.60;99.90;;;;;;5036477;28;20128;-87
2023/12/14 06:48:40;;;;;;;16.40;8.37;;;6.60;99.90;;;;;;5022135;28;20052;-87
2023/12/14 06:51:06;;;;;;;15.00;7.87;;;6.70;99.90;;;;;;5029858;28;20028;-87
2023/12/14 06:53:32;;;;;;;14.67;8.47;;;6.60;99.90;;;;;;5040111;28;20029;-87
2023/12/14 06:55:57;;;;;;;17.50;8.30;;;6.60;99.90;;;;;;5046916;28;20485;-87
2023/12/14 06:58:23;;;;;;;15.27;8.27;;;6.60;99.90;;;;;;5036602;28;20088;-87
2023/12/14 07:00:49;;;;;;;13.30;7.77;;;6.60;99.90;;;;;;5039954;28;20486;-86
2023/12/14 07:03:15;;;;;;;16.63;8.23;;;6.60;99.90;;;;;;5057235;28;20150;-88
2023/12/14 07:05:40;;;;;;;14.00;8.90;;;6.70;99.90;;;;;;5057392;28;20155;-87
2023/12/14 07:08:06;;;;;;;14.47;7.93;;;6.60;99.90;;;;;;5057842;28;20078;-86
2023/12/14 07:10:32;;;;;;;15.13;8.27;;;6.60;99.90;;;;;;5040036;28;20056;-87
2023/12/14 07:12:58;;;;;;;13.43;7.33;;;6.60;99.90;;;;;;5040392;28;20033;-88
2023/12/14 07:15:24;;;;;;;14.63;7.80;;;6.60;99.90;;;;;;5040068;28;20033;-87
2023/12/14 07:17:50;;;;;;;12.80;7.33;;;6.50;99.90;;;;;;5057621;28;20490;-87
2023/12/14 07:20:15;;;;;;;16.50;7.07;;;6.50;99.90;;;;;;5055408;28;20033;-83
2023/12/14 07:22:41;;;;;;;11.73;6.73;;;6.50;99.90;;;;;;5027764;28;20032;-84
2023/12/14 07:25:08;;;;;;;12.73;6.83;;;6.50;99.90;;;;;;5044920;28;20032;-83
2023/12/14 07:27:33;;;;;;;12.70;7.00;;;6.50;99.90;;;;;;5033530;28;20037;-83
2023/12/14 07:29:59;;;;;;;12.97;7.17;;;6.40;99.90;;;;;;5038398;28;20385;-87
2023/12/14 07:32:25;;;;;;;12.70;6.93;;;6.40;99.90;;;;;;5053398;28;20508;-86
2023/12/14 07:34:50;;;;;;;12.13;6.90;;;6.40;99.90;;;;;;5039786;28;20032;-86
2023/12/14 07:37:16;;;;;;;12.90;6.53;;;6.40;99.90;;;;;;5057330;28;20040;-86
2023/12/14 07:39:41;;;;;;;11.40;6.73;;;6.40;99.90;;;;;;5038348;28;20033;-87
2023/12/14 07:42:07;;;;;;;11.70;6.47;;;6.40;99.90;;;;;;5075824;28;20028;-87
2023/12/14 07:44:35;;;;;;;10.63;6.00;;;6.40;99.90;;;;;;5076176;28;20029;-87
2023/12/14 07:47:02;;;;;;;10.57;6.23;;;6.30;99.90;;;;;;5054665;28;20032;-87
2023/12/14 07:49:28;;;;;;;10.00;5.67;;;6.40;99.90;;;;;;5057220;28;20036;-86
2023/12/14 07:51:53;;;;;;;10.40;5.87;;;6.40;99.90;;;;;;5076045;28;20036;-87
2023/12/14 07:54:19;;;;;;;10.67;5.83;;;6.50;99.90;;;;;;5057797;28;20028;-86
2023/12/14 07:56:45;;;;;;;10.80;5.50;;;6.40;99.90;;;;;;5056172;28;20028;-87
2023/12/14 07:59:11;;;;;;;13.27;6.53;;;6.40;99.90;;;;;;5058730;28;20088;-87
2023/12/14 08:01:37;;;;;;;11.20;5.73;;;6.30;99.90;;;;;;5075466;28;20028;-87
2023/12/14 08:04:03;;;;;;;11.40;5.47;;;6.40;99.90;;;;;;5057481;28;20388;-87
2023/12/14 08:06:29;;;;;;;12.30;7.03;;;6.30;99.90;;;;;;5075414;28;20039;-87
2023/12/14 08:08:57;;;;;;;9.57;5.63;;;6.30;99.90;;;;;;5075469;28;20028;-87
2023/12/14 08:11:24;;;;;;;10.43;5.77;;;6.30;99.90;;;;;;5072876;28;20031;-87
2023/12/14 08:13:50;;;;;;;10.37;5.47;;;6.30;99.90;;;;;;5076660;28;20059;-88
2023/12/14 08:16:17;;;;;;;10.33;5.60;;;6.30;99.90;;;;;;5058834;28;20029;-88
2023/12/14 08:18:45;;;;;;;13.80;6.47;;;6.30;99.90;;;;;;5058364;28;20120;-87
2023/12/14 08:21:11;;;;;;;9.30;5.00;;;6.30;99.90;;;;;;5059079;28;20025;-87
2023/12/14 08:23:37;;;;;;;10.43;6.03;;;6.30;99.90;;;;;;5075275;28;20451;-86
2023/12/14 08:26:03;;;;;;;9.60;5.43;;;6.30;99.90;;;;;;5075668;28;20043;-86
2023/12/14 08:28:29;;;;;;;9.83;5.10;;;6.30;99.90;;;;;;5077306;28;20031;-87
2023/12/14 08:30:57;;;;;;;13.17;6.33;;;6.30;99.90;;;;;;5064693;28;20484;-86
2023/12/14 08:33:23;;;;;;;10.00;5.53;;;6.30;99.90;;;;;;5068549;28;20091;-87
2023/12/14 08:35:50;;;;;;;10.20;5.40;;;6.30;99.90;;;;;;5067118;28;20027;-87
2023/12/14 08:38:16;;;;;;;11.03;5.43;;;6.30;99.90;;;;;;5060159;28;20123;-86
2023/12/14 08:40:42;;;;;;;12.17;6.53;;;6.30;99.90;;;;;;5047524;28;20045;-86
2023/12/14 08:43:07;;;;;;;11.30;5.63;;;6.30;99.90;;;;;;5037108;28;20051;-87
2023/12/14 08:45:33;;;;;;;9.33;5.47;;;6.30;99.90;;;;;;5036933;28;20044;-87
2023/12/14 08:47:58;;;;;;;10.60;5.33;;;6.30;99.90;;;;;;5036703;28;20449;-87
2023/12/14 08:50:26;;;;;;;8.83;4.73;;;6.30;99.90;;;;;;5054861;28;20032;-86
2023/12/14 08:52:52;;;;;;;8.80;4.93;;;6.30;99.90;;;;;;5036713;28;20040;-86
2023/12/14 08:55:18;;;;;;;9.33;5.17;;;6.30;99.90;;;;;;5037064;28;20025;-87
2023/12/14 08:57:43;;;;;;;9.93;5.87;;;6.30;99.90;;;;;;5036906;28;20143;-87
2023/12/14 09:00:10;;;;;;;10.07;5.70;;;6.30;99.90;;;;;;5033615;28;20410;-86
2023/12/14 09:02:36;;;;;;;11.63;5.93;;;6.30;99.90;;;;;;5036756;28;20224;-88
2023/12/14 09:05:02;;;;;;;10.97;6.37;;;6.30;99.90;;;;;;5054915;28;20127;-86
2023/12/14 09:07:27;;;;;;;10.63;5.80;;;6.40;99.90;;;;;;5039803;28;20512;-87
2023/12/14 09:09:53;;;;;;;9.40;5.53;;;6.40;99.90;;;;;;5058134;28;20033;-86
2023/12/14 09:12:19;;;;;;;9.77;5.47;;;6.40;99.90;;;;;;5040112;28;20025;-85
2023/12/14 09:14:45;;;;;;;9.20;4.93;;;6.40;99.90;;;;;;5059145;28;20032;-86
2023/12/14 09:17:10;;;;;;;10.53;5.70;;;6.40;99.90;;;;;;5054217;28;20116;-87
2023/12/14 09:19:36;;;;;;;8.80;5.13;;;6.40;99.90;;;;;;5036517;28;20032;-86
2023/12/14 09:22:01;;;;;;;9.07;5.10;;;6.50;99.90;;;;;;5053892;28;20041;-86
2023/12/14 09:24:28;;;;;;;9.37;5.07;;;6.40;99.90;;;;;;5036942;28;20401;-87
2023/12/14 09:26:54;;;;;;;8.70;5.40;;;6.50;99.90;;;;;;5036246;28;20037;-86
2023/12/14 09:29:19;;;;;;;9.83;5.27;;;6.50;99.90;;;;;;5036384;28;20040;-87
2023/12/14 09:31:46;;;;;;;9.43;5.03;;;6.50;99.90;;;;;;5036201;28;20029;-88
2023/12/14 09:34:12;;;;;;;9.63;5.10;;;6.50;99.90;;;;;;5036734;28;20116;-88
2023/12/14 09:36:39;;;;;;;10.23;5.40;;;6.50;99.90;;;;;;5049617;28;20058;-87
2023/12/14 09:39:05;;;;;;;10.43;5.60;;;6.50;99.90;;;;;;5022717;28;20183;-89
2023/12/14 09:41:31;;;;;;;12.00;5.70;;;6.60;99.90;;;;;;5034143;28;20087;-88
2023/12/14 09:43:59;;;;;;;9.17;5.33;;;6.60;99.90;;;;;;5033246;28;20037;-88
2023/12/14 09:46:27;;;;;;;10.10;5.70;;;6.60;99.90;;;;;;5034109;28;20119;-88
2023/12/14 09:48:54;;;;;;;10.40;5.97;;;6.60;99.90;;;;;;5033321;28;20056;-88
2023/12/14 09:51:20;;;;;;;8.97;5.27;;;6.50;99.90;;;;;;5032832;28;20113;-88
2023/12/14 09:53:46;;;;;;;9.43;5.10;;;6.60;99.90;;;;;;5036348;28;20061;-88
2023/12/14 09:56:12;;;;;;;10.77;5.87;;;6.50;99.90;;;;;;5034746;28;20056;-88
2023/12/14 09:58:37;;;;;;;8.70;5.17;;;6.60;99.90;;;;;;5033476;28;20046;-88
2023/12/14 10:01:20;;;;;;;11.63;6.20;;;6.60;99.90;;;;;;5035777;28;20037;-88
2023/12/14 10:03:45;;;;;;;9.63;5.37;;;6.60;99.90;;;;;;5034633;28;20037;-88
2023/12/14 10:06:12;;;;;;;10.67;5.70;;;6.60;99.90;;;;;;5033912;28;20099;-88
2023/12/14 10:08:38;;;;;;;9.00;5.27;;;6.50;99.90;;;;;;5017229;28;20038;-88
2023/12/14 10:11:16;;;;;;;11.10;5.80;;;6.60;99.90;;;;;;5035020;28;20118;-88
2023/12/14 10:13:41;;;;;;;11.10;6.33;;;6.60;99.90;;;;;;5037269;28;20030;-88
2023/12/14 10:16:07;;;;;;;9.50;5.60;;;6.60;99.90;;;;;;5037912;28;20409;-88
2023/12/14 10:18:36;;;;;;;10.63;5.80;;;6.50;99.90;;;;;;5020598;28;20080;-89
2023/12/14 10:21:02;;;;;;;11.90;6.37;;;6.50;99.90;;;;;;5037854;28;20079;-88
2023/12/14 10:23:28;;;;;;;11.27;6.70;;;6.60;99.90;;;;;;5037954;28;20041;-88
2023/12/14 10:25:54;;;;;;;12.20;6.73;;;6.50;99.90;;;;;;5037764;28;20038;-85
2023/12/14 10:28:19;;;;;;;11.20;6.07;;;6.60;99.90;;;;;;5038759;28;20052;-88
2023/12/14 10:30:45;;;;;;;12.03;6.10;;;6.50;99.90;;;;;;5038602;28;20545;-86
2023/12/14 10:33:11;;;;;;;12.10;6.80;;;6.50;99.90;;;;;;5038417;28;20401;-88
2023/12/14 10:35:36;;;;;;;10.80;6.80;;;6.60;99.90;;;;;;5038342;28;20029;-88
2023/12/14 10:38:05;;;;;;;13.67;7.47;;;6.60;99.90;;;;;;5038797;28;20067;-88
2023/12/14 10:40:36;;;;;;;11.90;6.43;;;6.60;99.90;;;;;;5038077;28;20037;-88
2023/12/14 10:43:04;;;;;;;12.00;6.87;;;6.50;99.90;;;;;;5037615;28;20112;-88
2023/12/14 10:45:32;;;;;;;12.43;7.10;;;6.60;99.90;;;;;;5036623;28;20037;-88
2023/12/14 10:48:03;;;;;;;12.50;6.73;;;6.50;99.90;;;;;;5036376;28;20477;-88
2023/12/14 10:50:30;;;;;;;13.13;7.43;;;6.50;99.90;;;;;;5036472;28;20477;-87
2023/12/14 10:52:57;;;;;;;10.47;6.43;;;6.50;99.90;;;;;;5036683;28;20065;-87
2023/12/14 10:55:37;;;;;;;13.60;8.17;;;6.60;99.90;;;;;;5037043;28;20087;-86
2023/12/14 10:58:03;;;;;;;12.23;6.60;;;6.60;99.90;;;;;;5039412;28;20025;-86
2023/12/14 11:00:30;;;;;;;11.07;7.13;;;6.60;99.90;;;;;;5057121;28;20095;-86
2023/12/14 11:02:59;;;;;;;11.30;6.13;;;6.60;99.90;;;;;;5038431;28;20033;-86
2023/12/14 11:05:29;;;;;;;11.83;7.17;;;6.70;99.90;;;;;;5038836;28;20116;-87
2023/12/14 11:08:00;;;;;;;10.93;6.23;;;6.70;99.90;;;;;;5038606;28;20577;-87
2023/12/14 11:10:28;;;;;;;12.67;6.60;;;6.70;99.90;;;;;;5038294;28;20120;-86
2023/12/14 11:13:02;;;;;;;11.67;6.23;;;6.80;99.90;;;;;;5038917;28;20031;-86
2023/12/14 11:15:29;;;;;;;11.80;6.73;;;6.80;99.90;;;;;;5055250;28;20022;-87
2023/12/14 11:18:10;;;;;;;12.40;6.77;;;6.80;99.90;;;;;;5039122;28;20032;-87
2023/12/14 11:20:45;;;;;;;12.07;6.93;;;6.80;99.90;;;;;;5038841;28;20029;-86
2023/12/14 11:23:27;;;;;;;13.13;7.53;;;6.80;99.90;;;;;;5038592;28;20025;-86
2023/12/14 11:25:56;;;;;;;19.30;7.37;;;6.80;99.90;;;;;;5035458;28;20033;-87
2023/12/14 11:28:22;;;;;;;12.03;6.97;;;6.80;99.90;;;;;;5053706;28;20108;-87
2023/12/14 11:30:48;;;;;;;15.27;7.33;;;6.90;99.90;;;;;;5038217;28;20536;-87
2023/12/14 11:33:16;;;;;;;12.83;7.17;;;6.90;99.90;;;;;;5045899;28;20068;-85
2023/12/14 11:35:42;;;;;;;11.70;6.60;;;6.90;99.90;;;;;;5047291;28;20036;-87
2023/12/14 11:38:13;;;;;;;12.40;6.53;;;6.90;99.90;;;;;;5049735;28;20111;-86
2023/12/14 11:40:39;;;;;;;12.20;7.20;;;6.90;99.90;;;;;;5047683;28;20102;-86
2023/12/14 11:43:09;;;;;;;14.70;7.03;;;6.90;99.90;;;;;;5058129;28;20047;-86
2023/12/14 11:45:39;;;;;;;10.83;6.50;;;7.00;99.90;;;;;;5064343;28;20503;-85
2023/12/14 11:48:10;;;;;;;11.53;6.53;;;6.90;99.90;;;;;;5066044;28;20040;-86
2023/12/14 11:50:40;;;;;;;12.40;7.80;;;6.90;99.90;;;;;;5079608;28;20049;-86
2023/12/14 11:53:07;;;;;;;14.87;6.93;;;6.90;99.90;;;;;;5075898;28;20033;-85
2023/12/14 11:55:35;;;;;;;14.67;7.93;;;6.90;99.90;;;;;;5055094;28;20039;-86
2023/12/14 11:58:02;;;;;;;13.47;7.07;;;6.90;99.90;;;;;;5057686;28;20481;-87
2023/12/14 12:00:29;;;;;;;13.80;7.23;;;6.90;99.90;;;;;;5057395;28;20025;-86
2023/12/14 12:03:14;;;;;;;12.53;7.07;;;6.80;99.90;;;;;;5057550;28;20124;-87
2023/12/14 12:05:41;;;;;;;11.67;6.17;;;6.90;99.90;;;;;;5055970;28;20032;-86
2023/12/14 12:08:08;;;;;;;11.13;6.50;;;6.90;99.90;;;;;;5057477;28;20090;-86
2023/12/14 12:10:35;;;;;;;11.67;7.17;;;7.00;99.90;;;;;;5075233;28;20021;-86
2023/12/14 12:13:05;;;;;;;11.73;6.87;;;7.00;99.90;;;;;;5058670;28;20025;-86
2023/12/14 12:15:35;;;;;;;11.80;5.90;;;7.10;99.90;;;;;;5058605;28;20129;-86
2023/12/14 12:18:08;;;;;;;14.83;6.47;;;7.10;99.90;;;;;;5075028;28;20039;-86
2023/12/14 12:20:34;;;;;;;11.53;6.33;;;7.10;99.90;;;;;;5057500;28;20025;-85
2023/12/14 12:23:01;;;;;;;10.37;5.80;;;7.20;99.90;;;;;;5074669;28;20039;-86
2023/12/14 12:25:27;;;;;;;10.77;6.13;;;7.20;99.90;;;;;;5057310;28;20017;-86
2023/12/14 12:27:55;;;;;;;9.57;6.10;;;7.30;99.90;;;;;;5056459;28;20033;-85
2023/12/14 12:30:21;;;;;;;9.20;5.57;;;7.40;99.90;;;;;;5059587;28;20045;-85
2023/12/14 12:32:47;;;;;;;14.53;6.77;;;7.50;99.90;;;;;;5075289;28;20051;-87
2023/12/14 12:35:13;;;;;;;9.97;6.07;;;7.60;99.90;;;;;;5074528;28;20041;-87
2023/12/14 12:37:39;;;;;;;11.57;5.90;;;7.70;99.90;;;;;;5074848;28;20032;-87
2023/12/14 12:40:05;;;;;;;9.50;5.07;;;7.80;99.90;;;;;;5057257;28;20029;-87